This is the latest recevied weather packets stored in our database for station/object JA1CAY-13. If no packets are shown the sender has not sent any weather packets the latest 10 day(s).
| Time | Temp. | Humidity | Pressure | Rain* | Wind** | Luminosity | Snow |
|---|---|---|---|---|---|---|---|
| 1778062525 | 16.67° C | 77% | 1018.2 hPa | 0 mm | - | 0 W/m² | - |
| 1778057125 | 18.33° C | 66% | 1017.9 hPa | 0 mm | - | 32 W/m² | - |
| 1778056586 | 18.33° C | 65% | 1018 hPa | 0 mm | - | 42 W/m² | - |
| 1778045786 | 18.33° C | 61% | 1018.7 hPa | 0 mm | - | 162 W/m² | - |
| 1778038765 | 17.78° C | 61% | 1020 hPa | 0 mm | - | 297 W/m² | - |
| 1778038225 | 17.22° C | 61% | 1020.2 hPa | 0 mm | - | 295 W/m² | - |
| 1778034445 | 16.11° C | 64% | 1021.3 hPa | 0 mm | - | 348 W/m² | - |
| 1778031205 | 15° C | 66% | 1022 hPa | 0 mm | - | 102 W/m² | - |
| 1778030126 | 15° C | 66% | 1022.3 hPa | 0 mm | - | 113 W/m² | - |
| 1778027965 | 14.44° C | 69% | 1022.7 hPa | 0 mm | - | 118 W/m² | - |
| 1778027426 | 14.44° C | 69% | 1022.7 hPa | 0 mm | - | 105 W/m² | - |
| 1778023645 | 13.33° C | 71% | 1023.3 hPa | 0 mm | - | 130 W/m² | - |
| 1778020945 | 12.78° C | 73% | 1023.3 hPa | 0 mm | - | 86 W/m² | - |
| 1778011765 | 10° C | 83% | 1023.2 hPa | 0 mm | - | 12 W/m² | - |
| 1778011225 | 10° C | 84% | 1023.2 hPa | 0 mm | - | 7 W/m² | - |
| 1778007985 | 10° C | 83% | 1022.9 hPa | 0 mm | - | 0 W/m² | - |
| 1778002585 | 10.56° C | 79% | 1022.6 hPa | 0 mm | - | 0 W/m² | - |
| 1777997726 | 11.67° C | 74% | 1022.4 hPa | 0 mm | - | 0 W/m² | - |
| 1777993945 | 12.78° C | 69% | 1022.5 hPa | 0 mm | - | 0 W/m² | - |
| 1777992325 | 13.33° C | 68% | 1022.7 hPa | 0 mm | - | 0 W/m² | - |
| 1777989625 | 13.89° C | 63% | 1022.4 hPa | 0 mm | - | 0 W/m² | - |
| 1777983685 | 15° C | 60% | 1021.8 hPa | 0 mm | - | 0 W/m² | - |
| 1777980985 | 16.11° C | 56% | 1021.3 hPa | 0 mm | - | 0 W/m² | - |
| 1777977205 | 17.22° C | 51% | 1020.3 hPa | 0 mm | - | 0 W/m² | - |
| 1777976665 | 17.22° C | 50% | 1020.1 hPa | 0 mm | - | 0 W/m² | - |
* Rain latest hour (hover to see other rain measurements)
** Current wind speed in m/s (hover to see current wind gust speed)